Time;durP1;ratioP1;P1;durP2;ratioP2;P2;SDS_P1;SDS_P2;PMS_P1;PMS_P2;Temp;Humidity;BMP_temperature;BMP_pressure;BME280_temperature;BME280_humidity;BME280_pressure;Samples;Min_cycle;Max_cycle;Signal;HPM_P1;HPM_P2
2023/12/21 00:02:05;;;;;;;5.20;2.70;;;;;;;4.06;100.00;98164.69;269813;1268;22553;-90
2023/12/21 00:08:08;;;;;;;7.10;3.00;;;;;;;4.04;100.00;98159.77;269774;1273;24107;-91
2023/12/21 00:14:10;;;;;;;5.70;2.80;;;;;;;4.00;100.00;98157.23;269778;1272;23276;-90
2023/12/21 00:20:14;;;;;;;6.70;2.50;;;;;;;3.96;100.00;98157.89;269902;1270;22507;-90
2023/12/21 00:26:15;;;;;;;4.20;2.40;;;;;;;3.90;100.00;98152.34;269917;1259;22591;-90
2023/12/21 00:32:16;;;;;;;4.50;2.80;;;;;;;3.82;100.00;98150.90;269975;1265;22599;-91
2023/12/21 00:38:18;;;;;;;5.30;2.00;;;;;;;3.76;100.00;98138.15;269852;1269;23395;-90
2023/12/21 00:44:21;;;;;;;3.70;2.10;;;;;;;3.76;100.00;98117.89;269778;1269;22552;-91
2023/12/21 00:50:22;;;;;;;3.10;1.60;;;;;;;3.88;100.00;98114.84;270017;1269;22535;-91
2023/12/21 00:56:24;;;;;;;2.80;1.80;;;;;;;4.02;100.00;98105.02;269855;1267;23369;-90
2023/12/21 01:02:25;;;;;;;3.70;1.60;;;;;;;4.11;100.00;98109.34;269730;1271;22592;-91
2023/12/21 01:08:27;;;;;;;4.70;1.80;;;;;;;4.18;100.00;98118.55;269922;1266;27883;-90
2023/12/21 01:14:32;;;;;;;2.80;1.40;;;;;;;4.26;100.00;98119.89;269714;1267;22527;-89
2023/12/21 01:20:35;;;;;;;6.50;2.10;;;;;;;4.30;100.00;98118.27;269737;1272;23352;-90
2023/12/21 01:26:37;;;;;;;4.40;2.10;;;;;;;4.26;100.00;98112.30;269765;1269;22559;-90
2023/12/21 01:32:38;;;;;;;5.30;2.40;;;;;;;4.20;100.00;98101.63;269665;1270;22635;-90
2023/12/21 01:38:48;;;;;;;5.90;2.20;;;;;;;4.14;100.00;98094.07;269907;1272;25275;-91
2023/12/21 01:44:51;;;;;;;3.20;2.00;;;;;;;4.10;100.00;98083.39;270103;1271;23448;-90
2023/12/21 01:50:53;;;;;;;3.10;2.10;;;;;;;4.07;100.00;98072.86;270062;1269;23533;-92
2023/12/21 01:56:55;;;;;;;4.30;2.30;;;;;;;4.05;100.00;98066.16;269834;1267;22566;-91
2023/12/21 02:02:58;;;;;;;4.40;2.10;;;;;;;4.02;100.00;98060.52;270010;1269;22533;-90
2023/12/21 02:09:03;;;;;;;2.90;1.60;;;;;;;4.01;100.00;98048.59;269864;1272;22534;-91
2023/12/21 02:15:08;;;;;;;4.30;1.70;;;;;;;4.00;100.00;98048.73;269707;1268;22530;-91
2023/12/21 02:21:11;;;;;;;2.90;1.40;;;;;;;4.00;100.00;98045.64;269839;1269;25279;-92
2023/12/21 02:27:12;;;;;;;2.60;1.40;;;;;;;4.01;100.00;98035.75;270407;1270;22525;-93
2023/12/21 02:33:15;;;;;;;3.40;1.60;;;;;;;3.96;100.00;98024.12;270824;1251;23160;-91
2023/12/21 02:39:18;;;;;;;2.20;1.20;;;;;;;3.87;100.00;98014.31;269796;1271;22581;-91
2023/12/21 02:45:21;;;;;;;3.10;1.30;;;;;;;3.81;100.00;98001.81;269393;1271;22652;-92
2023/12/21 02:51:25;;;;;;;3.10;1.50;;;;;;;3.77;100.00;97994.23;269333;1270;24228;-91
2023/12/21 02:57:29;;;;;;;2.20;1.50;;;;;;;3.73;100.00;97981.63;269124;1271;24183;-92
2023/12/21 03:03:34;;;;;;;3.10;1.50;;;;;;;3.70;100.00;97976.77;268971;1270;22565;-91
2023/12/21 03:09:36;;;;;;;4.10;1.30;;;;;;;3.68;100.00;97969.21;269575;1270;22569;-92
2023/12/21 03:15:40;;;;;;;2.50;1.50;;;;;;;3.68;100.00;97959.92;269306;1271;24203;-90
2023/12/21 03:21:44;;;;;;;1.70;1.00;;;;;;;3.67;100.00;97943.21;268890;1272;22560;-91
2023/12/21 03:27:49;;;;;;;2.70;1.30;;;;;;;3.66;100.00;97922.94;269419;1272;22699;-90
2023/12/21 03:33:54;;;;;;;1.40;1.10;;;;;;;3.66;100.00;97915.35;269027;1272;22542;-90
2023/12/21 03:39:56;;;;;;;3.00;1.70;;;;;;;3.65;100.00;97910.69;268887;1272;23286;-91
2023/12/21 03:46:01;;;;;;;1.80;0.90;;;;;;;3.64;100.00;97893.74;269119;1272;22523;-91
2023/12/21 03:52:04;;;;;;;2.70;1.50;;;;;;;3.64;100.00;97875.88;269055;1270;22565;-90
2023/12/21 03:58:06;;;;;;;2.30;1.30;;;;;;;3.62;100.00;97855.11;268933;1272;24395;-89
2023/12/21 04:04:11;;;;;;;2.20;1.20;;;;;;;3.58;100.00;97836.41;269349;1271;22544;-90
2023/12/21 04:10:13;;;;;;;1.70;1.10;;;;;;;3.51;100.00;97829.70;269298;1271;22609;-91
2023/12/21 04:16:16;;;;;;;2.50;1.10;;;;;;;3.43;100.00;97824.96;269265;1271;22546;-91
2023/12/21 04:22:49;;;;;;;2.10;1.00;;;;;;;3.32;100.00;97813.38;269241;1272;22625;-92
2023/12/21 04:29:03;;;;;;;2.00;0.90;;;;;;;3.18;100.00;97809.55;269007;1270;22516;-89
2023/12/21 04:35:10;;;;;;;1.50;0.90;;;;;;;3.14;100.00;97797.79;269002;1271;22533;-91
2023/12/21 04:41:12;;;;;;;1.40;0.80;;;;;;;3.13;100.00;97785.63;269242;1270;22544;-89
2023/12/21 04:47:16;;;;;;;3.10;0.90;;;;;;;3.15;100.00;97776.86;269277;1270;24261;-90
2023/12/21 04:53:18;;;;;;;2.60;1.10;;;;;;;3.19;100.00;97765.52;269252;1272;25305;-89
2023/12/21 04:59:21;;;;;;;1.40;0.70;;;;;;;3.21;100.00;97760.23;269216;1271;23728;-93
2023/12/21 05:05:23;;;;;;;2.20;1.10;;;;;;;3.16;100.00;97746.84;269214;1272;22548;-93
2023/12/21 05:11:31;;;;;;;2.90;1.20;;;;;;;3.14;100.00;97728.26;269447;1270;24233;-91
2023/12/21 05:17:34;;;;;;;;;;;;;;;3.17;100.00;97720.66;270282;1271;22555;-91
2023/12/21 05:23:38;;;;;;;3.80;1.50;;;;;;;3.21;100.00;97710.01;269157;1271;22560;-91
2023/12/21 05:29:42;;;;;;;4.80;1.90;;;;;;;3.28;100.00;97697.70;269344;1270;22949;-91
2023/12/21 05:35:44;;;;;;;6.00;1.50;;;;;;;3.34;100.00;97679.41;269232;1270;25512;-92
2023/12/21 05:41:46;;;;;;;5.00;2.00;;;;;;;3.44;100.00;97671.79;269284;1269;25285;-91
2023/12/21 05:47:52;;;;;;;4.70;1.50;;;;;;;3.52;100.00;97662.34;269359;1271;25210;-91
2023/12/21 05:54:33;;;;;;;;;;;;;;;;;;;;;
2023/12/21 06:00:37;;;;;;;1.90;0.90;;;;;;;3.61;100.00;97649.06;269842;1270;22600;-92
2023/12/21 06:06:45;;;;;;;2.40;0.80;;;;;;;3.61;100.00;97635.23;270269;1271;22609;-91
2023/12/21 06:12:49;;;;;;;1.60;0.80;;;;;;;3.63;100.00;97637.33;269642;1270;22528;-90
2023/12/21 06:18:55;;;;;;;1.20;0.70;;;;;;;3.67;100.00;97629.35;269738;1271;22557;-92
2023/12/21 06:24:57;;;;;;;1.20;0.50;;;;;;;3.68;100.00;97627.91;268950;1270;22561;-95
2023/12/21 06:31:03;;;;;;;2.10;0.70;;;;;;;3.68;100.00;97629.52;269693;1271;22563;-93
2023/12/21 06:37:26;;;;;;;1.50;0.70;;;;;;;3.70;100.00;97633.58;270798;1271;22556;-90
2023/12/21 06:43:32;;;;;;;2.00;0.80;;;;;;;3.72;100.00;97638.00;270630;1271;22592;-90
2023/12/21 06:49:36;;;;;;;1.70;0.80;;;;;;;3.71;100.00;97632.27;270667;1272;23874;-90
2023/12/21 06:55:39;;;;;;;2.80;0.80;;;;;;;3.73;100.00;97634.47;269343;1270;23361;-91
2023/12/21 07:01:43;;;;;;;2.10;1.10;;;;;;;3.72;100.00;97641.18;269117;1271;22546;-91
2023/12/21 07:07:45;;;;;;;2.00;1.10;;;;;;;3.69;100.00;97642.14;269366;1272;22578;-90
2023/12/21 07:13:50;;;;;;;2.90;0.90;;;;;;;3.68;100.00;97633.54;269036;1270;22586;-91
2023/12/21 07:19:52;;;;;;;3.30;1.40;;;;;;;3.68;100.00;97627.83;269124;1271;26531;-89
2023/12/21 07:25:54;;;;;;;1.30;0.70;;;;;;;3.70;100.00;97622.58;269150;1272;22651;-91
2023/12/21 07:31:59;;;;;;;2.70;1.10;;;;;;;3.73;100.00;97622.65;269371;1271;22561;-90
2023/12/21 07:38:02;;;;;;;1.70;0.90;;;;;;;3.75;100.00;97623.23;268936;1272;22532;-90
2023/12/21 07:44:06;;;;;;;2.90;1.00;;;;;;;3.77;100.00;97628.66;269414;1272;22570;-90
2023/12/21 07:50:14;;;;;;;2.90;1.30;;;;;;;3.80;100.00;97630.49;269608;1271;22554;-90
2023/12/21 07:56:17;;;;;;;2.70;0.90;;;;;;;3.83;100.00;97623.57;269513;1271;22638;-90
2023/12/21 08:02:20;;;;;;;2.40;0.90;;;;;;;3.79;100.00;97620.58;269451;1270;23794;-91
2023/12/21 08:08:22;;;;;;;2.80;1.00;;;;;;;3.77;100.00;97616.06;269877;1272;22562;-92
2023/12/21 08:14:28;;;;;;;4.20;1.60;;;;;;;3.79;100.00;97613.39;269621;1270;22568;-92
2023/12/21 08:20:30;;;;;;;2.20;1.10;;;;;;;3.83;100.00;97607.73;269527;1272;22592;-90
2023/12/21 08:27:15;;;;;;;2.90;1.10;;;;;;;3.85;100.00;97599.02;269247;1260;23389;-92
2023/12/21 08:33:25;;;;;;;4.30;1.90;;;;;;;3.84;100.00;97592.33;269366;1271;22566;-91
2023/12/21 08:39:29;;;;;;;5.70;1.50;;;;;;;3.78;100.00;97586.38;269634;1272;22779;-92
2023/12/21 08:45:32;;;;;;;3.90;1.50;;;;;;;3.71;100.00;97579.16;269685;1272;22586;-91
2023/12/21 08:51:38;;;;;;;3.00;1.30;;;;;;;3.64;100.00;97564.65;269859;1271;22556;-92
2023/12/21 08:57:42;;;;;;;1.80;1.00;;;;;;;3.57;100.00;97553.18;270479;1256;24274;-91
2023/12/21 09:03:48;;;;;;;2.80;1.00;;;;;;;3.62;100.00;97536.89;270871;1270;22518;-92
2023/12/21 09:09:51;;;;;;;;;;;;;;;3.68;100.00;97520.80;270810;1271;22548;-90
2023/12/21 09:15:55;;;;;;;1.70;0.80;;;;;;;3.71;100.00;97497.13;269749;1269;25813;-90
2023/12/21 09:22:42;;;;;;;1.60;0.70;;;;;;;3.80;100.00;97464.37;269655;1270;22586;-90
2023/12/21 09:29:09;;;;;;;2.80;1.10;;;;;;;3.94;100.00;97440.96;270106;1271;23091;-92
2023/12/21 09:35:14;;;;;;;1.90;1.00;;;;;;;4.14;100.00;97412.73;268990;1272;23385;-92
2023/12/21 09:41:18;;;;;;;1.20;0.60;;;;;;;4.33;100.00;97387.63;271594;1273;24303;-91
2023/12/21 09:47:24;;;;;;;2.00;0.80;;;;;;;4.48;100.00;97367.16;270439;1270;22554;-93
2023/12/21 09:53:28;;;;;;;1.60;0.70;;;;;;;4.56;100.00;97348.65;269920;1272;22584;-90
2023/12/21 09:59:35;;;;;;;1.90;0.90;;;;;;;4.59;100.00;97330.71;269129;1275;23663;-91
2023/12/21 10:05:40;;;;;;;1.10;0.70;;;;;;;4.69;100.00;97312.35;269335;1269;23576;-92
2023/12/21 10:12:04;;;;;;;1.70;1.00;;;;;;;4.89;100.00;97304.20;269086;1270;22573;-90
2023/12/21 10:18:07;;;;;;;2.80;0.80;;;;;;;5.17;100.00;97308.23;269203;1271;24316;-90
2023/12/21 10:24:11;;;;;;;1.30;0.70;;;;;;;5.39;100.00;97293.86;269190;1271;23046;-91
2023/12/21 10:30:15;;;;;;;1.20;0.80;;;;;;;5.52;100.00;97270.95;269087;1270;23503;-92
2023/12/21 10:36:26;;;;;;;1.70;0.80;;;;;;;5.56;100.00;97252.05;269207;1275;22556;-92
2023/12/21 10:42:30;;;;;;;2.50;0.90;;;;;;;5.58;100.00;97242.73;269464;1272;22684;-91
2023/12/21 10:48:37;;;;;;;1.60;0.50;;;;;;;5.60;100.00;97227.54;268940;1255;23328;-91
2023/12/21 10:54:42;;;;;;;2.10;0.90;;;;;;;5.59;100.00;97196.36;269526;1272;22514;-92
2023/12/21 11:00:44;;;;;;;2.00;1.20;;;;;;;5.58;100.00;97172.72;269653;1272;22650;-93
2023/12/21 11:06:54;;;;;;;2.60;0.90;;;;;;;5.61;100.00;97157.52;269336;1271;22537;-92
2023/12/21 11:12:59;;;;;;;2.10;0.90;;;;;;;5.69;100.00;97131.92;269243;1271;22556;-92
2023/12/21 11:19:06;;;;;;;2.80;1.10;;;;;;;5.75;100.00;97123.77;272706;1272;22622;-92
2023/12/21 11:25:12;;;;;;;3.20;1.40;;;;;;;5.80;100.00;97104.46;269699;1271;25434;-93
2023/12/21 11:31:15;;;;;;;2.50;0.90;;;;;;;5.87;100.00;97090.21;269228;1272;22524;-92
2023/12/21 11:37:26;;;;;;;2.40;1.20;;;;;;;5.94;100.00;97071.44;273144;1271;22217;-92
2023/12/21 11:50:45;;;;;;;3.50;0.90;;;;;;;6.07;100.00;97040.06;263379;1298;546524;-94
2023/12/21 11:56:48;;;;;;;2.20;0.90;;;;;;;6.05;100.00;97020.75;267650;1283;23727;-91
2023/12/21 12:02:53;;;;;;;1.40;0.80;;;;;;;6.03;100.00;97006.63;268569;1273;546067;-92
2023/12/21 12:08:56;;;;;;;1.50;0.60;;;;;;;6.00;99.94;96986.77;269056;1273;22595;-91
2023/12/21 12:14:58;;;;;;;2.60;1.00;;;;;;;5.98;99.54;96973.58;269098;1273;22551;-93
2023/12/21 12:21:00;;;;;;;1.80;0.70;;;;;;;5.95;99.76;96958.61;269929;1267;22582;-92
2023/12/21 12:27:09;;;;;;;2.30;1.00;;;;;;;5.92;99.88;96943.65;269890;1267;22660;-91
2023/12/21 12:33:14;;;;;;;3.50;0.90;;;;;;;5.90;99.37;96936.59;270233;1267;25495;-93
2023/12/21 12:39:16;;;;;;;4.60;1.10;;;;;;;5.87;99.46;96922.73;270193;1267;23163;-93
2023/12/21 12:45:20;;;;;;;2.60;1.00;;;;;;;5.84;98.97;96907.21;269960;1257;22580;-93
2023/12/21 12:51:39;;;;;;;;;;;;;;;;;;;;;
2023/12/21 12:57:48;;;;;;;2.10;1.10;;;;;;;5.78;99.03;96873.63;270147;1267;22654;-90
2023/12/21 13:03:50;;;;;;;2.10;0.90;;;;;;;5.70;99.18;96856.42;271312;1261;22586;-92
2023/12/21 13:09:51;;;;;;;1.50;1.00;;;;;;;5.63;99.23;96844.05;270325;1257;22653;-92
2023/12/21 13:15:54;;;;;;;2.50;1.30;;;;;;;5.57;99.57;96839.27;270180;1268;23021;-90
2023/12/21 13:21:56;;;;;;;2.80;0.80;;;;;;;5.50;99.94;96828.20;269811;1267;22259;-90
2023/12/21 13:27:58;;;;;;;2.80;1.10;;;;;;;5.42;100.00;96811.55;270161;1267;23364;-92
2023/12/21 13:34:16;;;;;;;2.50;1.00;;;;;;;5.35;100.00;96798.41;270328;1267;26645;-90
2023/12/21 13:40:32;;;;;;;2.50;1.00;;;;;;;5.27;100.00;96786.11;269740;1267;22663;-90
2023/12/21 13:46:33;;;;;;;2.30;1.00;;;;;;;5.22;100.00;96772.88;269942;1267;22640;-93
2023/12/21 13:52:35;;;;;;;2.30;0.90;;;;;;;5.16;100.00;96755.70;269921;1268;24225;-89
2023/12/21 13:58:37;;;;;;;2.40;0.90;;;;;;;5.10;100.00;96736.43;269852;1266;22517;-91
2023/12/21 14:04:39;;;;;;;1.80;0.90;;;;;;;5.03;100.00;96723.59;269848;1267;22535;-91
2023/12/21 14:10:42;;;;;;;2.70;1.20;;;;;;;4.96;100.00;96711.38;270113;1268;25153;-91
2023/12/21 14:17:05;;;;;;;;;;;;;;;;;;;;;
2023/12/21 14:23:43;;;;;;;2.30;1.20;;;;;;;4.81;100.00;96680.67;270990;1267;26994;-93
2023/12/21 14:29:55;;;;;;;3.10;1.70;;;;;;;4.75;100.00;96663.04;274032;1267;22332;-90
2023/12/21 14:35:57;;;;;;;5.20;1.40;;;;;;;4.69;100.00;96639.59;269857;1267;22556;-91
2023/12/21 14:42:01;;;;;;;2.50;1.20;;;;;;;4.63;100.00;96620.42;269926;1267;25311;-92
2023/12/21 14:48:07;;;;;;;3.20;1.40;;;;;;;4.60;100.00;96598.98;270217;1267;23182;-90
2023/12/21 14:54:08;;;;;;;2.30;1.10;;;;;;;4.56;100.00;96579.48;269889;1267;25256;-91
2023/12/21 15:00:10;;;;;;;4.90;1.30;;;;;;;4.55;100.00;96556.27;269884;1267;22565;-91
2023/12/21 15:06:12;;;;;;;3.40;1.40;;;;;;;4.51;100.00;96532.45;270104;1266;22665;-91
2023/12/21 15:12:17;;;;;;;2.20;0.80;;;;;;;4.49;100.00;96517.05;270017;1267;22543;-91
2023/12/21 15:18:19;;;;;;;3.00;1.40;;;;;;;4.51;100.00;96498.86;270112;1269;25667;-90
2023/12/21 15:24:22;;;;;;;4.90;1.20;;;;;;;4.52;100.00;96485.54;269935;1267;22560;-92
2023/12/21 15:30:23;;;;;;;2.50;1.20;;;;;;;4.53;100.00;96469.44;269747;1266;22956;-91
2023/12/21 15:36:26;;;;;;;3.60;1.30;;;;;;;4.56;100.00;96453.31;270053;1267;22658;-91
2023/12/21 15:42:31;;;;;;;4.10;1.80;;;;;;;4.57;100.00;96434.18;269965;1266;22595;-92
2023/12/21 15:48:35;;;;;;;3.10;1.60;;;;;;;4.58;100.00;96419.46;272737;1267;26385;-91
2023/12/21 15:54:37;;;;;;;3.00;1.30;;;;;;;4.61;100.00;96397.46;270107;1267;22538;-91
2023/12/21 16:01:26;;;;;;;;;;;;;;;;;;;;;
2023/12/21 16:07:44;;;;;;;3.70;1.80;;;;;;;4.60;100.00;96360.85;270046;1266;24785;-91
2023/12/21 16:13:48;;;;;;;4.40;1.60;;;;;;;4.62;100.00;96343.42;270088;1267;22689;-90
2023/12/21 16:19:54;;;;;;;2.20;1.20;;;;;;;4.66;100.00;96328.05;270255;1266;22539;-92
2023/12/21 16:26:00;;;;;;;2.90;1.20;;;;;;;4.72;100.00;96314.38;269961;1267;21993;-92
2023/12/21 16:32:06;;;;;;;4.00;1.60;;;;;;;4.79;100.00;96302.02;270210;1266;22961;-92
2023/12/21 16:38:10;;;;;;;1.80;1.10;;;;;;;4.83;100.00;96295.52;270415;1265;26312;-91
2023/12/21 16:44:12;;;;;;;1.70;1.00;;;;;;;4.83;100.00;96274.30;270916;1266;22662;-92
2023/12/21 16:50:21;;;;;;;2.30;1.30;;;;;;;4.86;100.00;96254.84;271263;1266;22579;-92
2023/12/21 17:03:02;;;;;;;2.80;1.40;;;;;;;4.91;100.00;96208.25;263175;1305;546681;-90
2023/12/21 17:09:05;;;;;;;2.70;1.30;;;;;;;4.92;100.00;96191.52;272622;1274;22184;-90
2023/12/21 17:15:08;;;;;;;2.50;1.30;;;;;;;4.98;100.00;96184.23;265130;1272;10001365;-91
2023/12/21 17:21:10;;;;;;;3.40;1.10;;;;;;;5.05;100.00;96176.48;271779;1272;22443;-91
2023/12/21 17:27:12;;;;;;;3.50;1.10;;;;;;;5.07;100.00;96168.49;270219;1272;23297;-89
2023/12/21 17:33:15;;;;;;;3.80;1.10;;;;;;;5.06;100.00;96160.59;270604;1272;22871;-91
2023/12/21 17:39:17;;;;;;;3.00;1.30;;;;;;;5.12;100.00;96145.25;272494;1272;22417;-92
2023/12/21 17:45:21;;;;;;;2.10;0.80;;;;;;;5.19;100.00;96133.84;273018;1272;23577;-91
2023/12/21 17:51:23;;;;;;;3.60;1.20;;;;;;;5.27;100.00;96127.07;272133;1270;22415;-90
2023/12/21 17:57:25;;;;;;;2.90;1.30;;;;;;;5.33;100.00;96120.17;271769;1272;25452;-90
2023/12/21 18:03:29;;;;;;;2.00;0.90;;;;;;;5.36;100.00;96118.42;271759;1270;23713;-90
2023/12/21 18:09:31;;;;;;;2.20;0.60;;;;;;;5.41;100.00;96112.69;273429;1272;22472;-91
2023/12/21 18:15:34;;;;;;;3.30;1.70;;;;;;;5.45;100.00;96100.15;273247;1271;22422;-90
2023/12/21 18:21:36;;;;;;;2.70;1.30;;;;;;;5.47;100.00;96095.78;273654;1270;22387;-90
2023/12/21 18:27:39;;;;;;;3.80;1.40;;;;;;;5.42;100.00;96089.66;273217;1269;23414;-89
2023/12/21 18:33:41;;;;;;;2.40;1.40;;;;;;;5.33;100.00;96074.98;271893;1268;22420;-91
2023/12/21 18:39:43;;;;;;;4.70;1.50;;;;;;;5.22;100.00;96063.20;272608;1269;22586;-91
2023/12/21 18:45:51;;;;;;;4.20;1.80;;;;;;;5.13;100.00;96057.45;272791;1268;22730;-89
2023/12/21 18:51:55;;;;;;;;;;;;;;;5.12;100.00;96064.91;271547;1269;22514;-91
2023/12/21 18:58:01;;;;;;;1.90;1.10;;;;;;;5.09;100.00;96059.15;273942;1269;22434;-90
2023/12/21 19:04:03;;;;;;;5.30;1.60;;;;;;;5.02;100.00;96043.45;272016;1269;24222;-91
2023/12/21 19:10:06;;;;;;;3.10;1.30;;;;;;;4.95;100.00;96024.95;272218;1269;22501;-89
2023/12/21 19:16:08;;;;;;;2.90;1.20;;;;;;;4.91;100.00;96003.02;271977;1269;23331;-91
2023/12/21 19:22:10;;;;;;;3.20;1.60;;;;;;;4.86;100.00;95979.54;271275;1269;22218;-92
2023/12/21 19:28:12;;;;;;;3.80;1.40;;;;;;;4.86;100.00;95976.37;271765;1269;22428;-89
2023/12/21 19:34:14;;;;;;;2.20;0.90;;;;;;;4.89;100.00;95971.70;273822;1272;22203;-92
2023/12/21 19:40:17;;;;;;;1.50;0.90;;;;;;;4.94;100.00;95948.30;273686;1269;22409;-90
2023/12/21 19:46:20;;;;;;;3.00;1.00;;;;;;;5.05;100.00;95931.23;273374;1269;22632;-92
2023/12/21 19:52:22;;;;;;;1.60;0.90;;;;;;;5.18;100.00;95922.05;271698;1269;22268;-92
2023/12/21 19:58:26;;;;;;;2.90;1.10;;;;;;;5.23;100.00;95916.83;273770;1269;22213;-91
2023/12/21 20:04:29;;;;;;;2.60;1.00;;;;;;;5.28;100.00;95915.59;272301;1269;22212;-91
2023/12/21 20:10:31;;;;;;;3.00;1.30;;;;;;;5.30;100.00;95908.04;273649;1269;22170;-91
2023/12/21 20:16:33;;;;;;;3.10;1.40;;;;;;;5.32;100.00;95910.95;273728;1269;22179;-91
2023/12/21 20:22:36;;;;;;;4.10;1.50;;;;;;;5.36;100.00;95908.31;273631;1270;22537;-91
2023/12/21 20:28:38;;;;;;;1.50;1.10;;;;;;;5.40;100.00;95888.48;273132;1269;22439;-91
2023/12/21 20:34:40;;;;;;;2.60;1.10;;;;;;;5.43;100.00;95872.07;273758;1269;22207;-92
2023/12/21 20:40:45;;;;;;;1.80;0.90;;;;;;;5.48;100.00;95851.95;273410;1269;22312;-93
2023/12/21 20:46:52;;;;;;;2.30;0.70;;;;;;;5.52;100.00;95849.34;273832;1275;22176;-90
2023/12/21 20:52:54;;;;;;;3.00;1.20;;;;;;;5.55;100.00;95849.37;272984;1268;22422;-92
2023/12/21 20:58:56;;;;;;;3.80;1.30;;;;;;;5.58;100.00;95844.89;273340;1269;22308;-92
2023/12/21 21:05:05;;;;;;;2.40;1.20;;;;;;;5.61;100.00;95853.13;273743;1269;22472;-90
2023/12/21 21:11:07;;;;;;;3.70;1.50;;;;;;;5.52;100.00;95853.59;273286;1269;22232;-90
2023/12/21 21:17:09;;;;;;;3.30;1.20;;;;;;;5.42;100.00;95852.80;272380;1269;23320;-90
2023/12/21 21:23:11;;;;;;;2.70;1.00;;;;;;;5.34;100.00;95869.67;273449;1269;22239;-89
2023/12/21 21:29:15;;;;;;;7.30;1.60;;;;;;;5.29;100.00;95885.49;273504;1270;23167;-89
2023/12/21 21:35:17;;;;;;;2.80;1.10;;;;;;;5.23;100.00;95890.95;273801;1269;22342;-88
2023/12/21 21:41:19;;;;;;;4.70;1.30;;;;;;;5.18;100.00;95901.42;273236;1257;22664;-90
2023/12/21 21:47:21;;;;;;;4.30;1.40;;;;;;;5.12;100.00;95912.53;273540;1270;22264;-89
2023/12/21 21:53:23;;;;;;;4.20;1.60;;;;;;;5.07;100.00;95925.09;272545;1269;22557;-90
2023/12/21 21:59:24;;;;;;;5.30;2.30;;;;;;;5.00;100.00;95934.34;271559;1269;22642;-89
2023/12/21 22:05:26;;;;;;;2.90;1.60;;;;;;;4.94;100.00;95940.48;271749;1268;22528;-88
2023/12/21 22:11:28;;;;;;;3.90;1.40;;;;;;;4.90;100.00;95922.11;272982;1269;22173;-89
2023/12/21 22:17:31;;;;;;;4.30;2.00;;;;;;;4.86;100.00;95921.46;270287;1263;22577;-90
2023/12/21 22:23:34;;;;;;;2.30;1.20;;;;;;;4.78;100.00;95906.66;273077;1270;23257;-90
2023/12/21 22:29:36;;;;;;;4.30;1.10;;;;;;;4.65;100.00;95921.71;273932;1257;22548;-89
2023/12/21 22:35:39;;;;;;;2.30;1.10;;;;;;;4.62;100.00;95929.95;273767;1269;22527;-90
2023/12/21 22:41:40;;;;;;;2.40;1.00;;;;;;;4.61;100.00;95934.16;273811;1265;22231;-90
2023/12/21 22:47:42;;;;;;;3.50;0.70;;;;;;;4.58;100.00;95949.67;271942;1269;22439;-92
2023/12/21 22:53:44;;;;;;;4.10;0.90;;;;;;;4.55;100.00;95955.69;273295;1268;22465;-91
2023/12/21 22:59:46;;;;;;;5.00;0.90;;;;;;;4.48;100.00;95960.35;273400;1254;22570;-91
2023/12/21 23:05:49;;;;;;;3.80;1.00;;;;;;;4.46;100.00;95947.14;272111;1269;22415;-91
2023/12/21 23:11:51;;;;;;;5.10;1.40;;;;;;;4.45;100.00;95945.46;273550;1269;23132;-90
2023/12/21 23:17:53;;;;;;;2.40;1.00;;;;;;;4.48;100.00;95947.42;272884;1270;22402;-91
2023/12/21 23:23:58;;;;;;;2.50;1.00;;;;;;;4.52;100.00;95937.30;273710;1270;22313;-91
2023/12/21 23:30:02;;;;;;;4.40;1.40;;;;;;;4.54;100.00;95946.34;273718;1272;23863;-89
2023/12/21 23:36:05;;;;;;;5.70;1.90;;;;;;;4.53;100.00;95958.81;273864;1269;22217;-91
2023/12/21 23:42:07;;;;;;;5.20;1.80;;;;;;;4.51;100.00;95970.06;273696;1268;22628;-90
2023/12/21 23:48:09;;;;;;;7.30;3.20;;;;;;;4.52;100.00;95969.97;273845;1269;22189;-90
2023/12/21 23:54:15;;;;;;;8.70;2.30;;;;;;;4.59;100.00;95968.56;272639;1269;22443;-93
